sensor_id;sensor_type;location;lat;lon;timestamp;P1;durP1;ratioP1;P2;durP2;ratioP2
15655;SDS011;7928;43.614;1.456;2023-04-01T00:00:36;20.30;;;3.97;;
15655;SDS011;7928;43.614;1.456;2023-04-01T00:03:03;21.67;;;4.63;;
15655;SDS011;7928;43.614;1.456;2023-04-01T00:05:30;21.20;;;4.80;;
15655;SDS011;7928;43.614;1.456;2023-04-01T00:07:57;16.43;;;4.23;;
15655;SDS011;7928;43.614;1.456;2023-04-01T00:10:25;27.70;;;4.93;;
15655;SDS011;7928;43.614;1.456;2023-04-01T00:12:52;21.80;;;5.60;;
15655;SDS011;7928;43.614;1.456;2023-04-01T00:15:21;28.17;;;5.17;;
15655;SDS011;7928;43.614;1.456;2023-04-01T00:17:48;18.97;;;3.83;;
15655;SDS011;7928;43.614;1.456;2023-04-01T00:20:15;22.83;;;4.03;;
15655;SDS011;7928;43.614;1.456;2023-04-01T00:22:42;21.77;;;4.17;;
15655;SDS011;7928;43.614;1.456;2023-04-01T00:25:09;21.23;;;4.23;;
15655;SDS011;7928;43.614;1.456;2023-04-01T00:27:36;24.13;;;4.70;;
15655;SDS011;7928;43.614;1.456;2023-04-01T00:30:03;23.97;;;5.27;;
15655;SDS011;7928;43.614;1.456;2023-04-01T00:32:33;21.97;;;4.77;;
15655;SDS011;7928;43.614;1.456;2023-04-01T00:35:01;19.03;;;4.50;;
15655;SDS011;7928;43.614;1.456;2023-04-01T00:37:28;22.60;;;4.83;;
15655;SDS011;7928;43.614;1.456;2023-04-01T00:39:55;19.77;;;4.17;;
15655;SDS011;7928;43.614;1.456;2023-04-01T00:42:22;24.13;;;4.27;;
15655;SDS011;7928;43.614;1.456;2023-04-01T00:44:51;22.37;;;5.47;;
15655;SDS011;7928;43.614;1.456;2023-04-01T00:47:20;20.43;;;4.47;;
15655;SDS011;7928;43.614;1.456;2023-04-01T00:49:51;20.40;;;4.67;;
15655;SDS011;7928;43.614;1.456;2023-04-01T00:52:21;22.93;;;4.30;;
15655;SDS011;7928;43.614;1.456;2023-04-01T00:54:52;23.67;;;5.40;;
15655;SDS011;7928;43.614;1.456;2023-04-01T00:57:23;24.67;;;3.83;;
15655;SDS011;7928;43.614;1.456;2023-04-01T00:59:54;20.03;;;4.57;;
15655;SDS011;7928;43.614;1.456;2023-04-01T01:02:22;22.90;;;5.27;;
15655;SDS011;7928;43.614;1.456;2023-04-01T01:04:50;17.33;;;4.27;;
15655;SDS011;7928;43.614;1.456;2023-04-01T01:07:20;19.17;;;3.97;;
15655;SDS011;7928;43.614;1.456;2023-04-01T01:09:55;25.53;;;4.83;;
15655;SDS011;7928;43.614;1.456;2023-04-01T01:12:31;22.87;;;4.40;;
15655;SDS011;7928;43.614;1.456;2023-04-01T01:15:07;23.13;;;4.97;;
15655;SDS011;7928;43.614;1.456;2023-04-01T01:17:47;18.83;;;3.43;;
15655;SDS011;7928;43.614;1.456;2023-04-01T01:26:29;21.53;;;4.83;;
15655;SDS011;7928;43.614;1.456;2023-04-01T01:29:31;24.47;;;3.80;;
15655;SDS011;7928;43.614;1.456;2023-04-01T01:32:29;24.27;;;4.67;;
15655;SDS011;7928;43.614;1.456;2023-04-01T01:35:10;25.00;;;4.83;;
15655;SDS011;7928;43.614;1.456;2023-04-01T01:37:42;24.47;;;4.43;;
15655;SDS011;7928;43.614;1.456;2023-04-01T01:40:11;26.20;;;5.17;;
15655;SDS011;7928;43.614;1.456;2023-04-01T01:42:43;23.67;;;4.43;;
15655;SDS011;7928;43.614;1.456;2023-04-01T01:45:13;23.20;;;4.20;;
15655;SDS011;7928;43.614;1.456;2023-04-01T01:47:43;20.90;;;4.43;;
15655;SDS011;7928;43.614;1.456;2023-04-01T01:50:12;22.53;;;5.63;;
15655;SDS011;7928;43.614;1.456;2023-04-01T01:52:40;18.70;;;4.00;;
15655;SDS011;7928;43.614;1.456;2023-04-01T01:55:22;19.17;;;4.53;;
15655;SDS011;7928;43.614;1.456;2023-04-01T01:57:52;20.73;;;3.90;;
15655;SDS011;7928;43.614;1.456;2023-04-01T02:00:20;28.67;;;5.07;;
15655;SDS011;7928;43.614;1.456;2023-04-01T02:02:48;16.70;;;4.10;;
15655;SDS011;7928;43.614;1.456;2023-04-01T02:05:18;24.30;;;4.47;;
15655;SDS011;7928;43.614;1.456;2023-04-01T02:07:49;20.90;;;4.37;;
15655;SDS011;7928;43.614;1.456;2023-04-01T02:10:22;22.80;;;3.87;;
15655;SDS011;7928;43.614;1.456;2023-04-01T02:12:53;23.70;;;5.17;;
15655;SDS011;7928;43.614;1.456;2023-04-01T02:15:24;19.63;;;4.00;;
15655;SDS011;7928;43.614;1.456;2023-04-01T02:17:52;25.03;;;4.53;;
15655;SDS011;7928;43.614;1.456;2023-04-01T02:20:23;23.60;;;4.00;;
15655;SDS011;7928;43.614;1.456;2023-04-01T02:22:51;28.17;;;4.83;;
15655;SDS011;7928;43.614;1.456;2023-04-01T02:25:20;19.57;;;4.50;;
15655;SDS011;7928;43.614;1.456;2023-04-01T02:27:49;23.07;;;5.00;;
15655;SDS011;7928;43.614;1.456;2023-04-01T02:30:16;26.53;;;4.20;;
15655;SDS011;7928;43.614;1.456;2023-04-01T02:32:44;20.60;;;4.80;;
15655;SDS011;7928;43.614;1.456;2023-04-01T02:35:13;24.47;;;4.70;;
15655;SDS011;7928;43.614;1.456;2023-04-01T02:37:43;20.87;;;3.87;;
15655;SDS011;7928;43.614;1.456;2023-04-01T02:40:14;24.17;;;4.30;;
15655;SDS011;7928;43.614;1.456;2023-04-01T02:42:42;31.70;;;5.10;;
15655;SDS011;7928;43.614;1.456;2023-04-01T02:45:10;18.20;;;4.50;;
15655;SDS011;7928;43.614;1.456;2023-04-01T02:47:38;21.40;;;4.07;;
15655;SDS011;7928;43.614;1.456;2023-04-01T02:50:05;19.03;;;4.10;;
15655;SDS011;7928;43.614;1.456;2023-04-01T02:52:33;20.17;;;4.60;;
15655;SDS011;7928;43.614;1.456;2023-04-01T02:55:01;27.27;;;5.20;;
15655;SDS011;7928;43.614;1.456;2023-04-01T02:57:29;23.73;;;4.87;;
15655;SDS011;7928;43.614;1.456;2023-04-01T02:59:56;24.03;;;5.60;;
15655;SDS011;7928;43.614;1.456;2023-04-01T03:02:23;24.67;;;4.43;;
15655;SDS011;7928;43.614;1.456;2023-04-01T03:04:50;25.20;;;4.90;;
15655;SDS011;7928;43.614;1.456;2023-04-01T03:07:17;23.43;;;5.60;;
15655;SDS011;7928;43.614;1.456;2023-04-01T03:09:44;18.83;;;3.93;;
15655;SDS011;7928;43.614;1.456;2023-04-01T03:12:12;22.70;;;4.13;;
15655;SDS011;7928;43.614;1.456;2023-04-01T03:14:39;26.10;;;5.17;;
15655;SDS011;7928;43.614;1.456;2023-04-01T03:17:06;23.77;;;4.90;;
15655;SDS011;7928;43.614;1.456;2023-04-01T03:19:33;25.23;;;4.60;;
15655;SDS011;7928;43.614;1.456;2023-04-01T03:22:00;18.50;;;4.37;;
15655;SDS011;7928;43.614;1.456;2023-04-01T03:24:27;20.73;;;4.17;;
15655;SDS011;7928;43.614;1.456;2023-04-01T03:26:54;17.83;;;4.90;;
15655;SDS011;7928;43.614;1.456;2023-04-01T03:29:22;22.23;;;5.30;;
15655;SDS011;7928;43.614;1.456;2023-04-01T03:31:49;21.90;;;4.47;;
15655;SDS011;7928;43.614;1.456;2023-04-01T03:34:17;21.43;;;5.30;;
15655;SDS011;7928;43.614;1.456;2023-04-01T03:36:44;23.47;;;4.73;;
15655;SDS011;7928;43.614;1.456;2023-04-01T03:39:11;20.60;;;3.97;;
15655;SDS011;7928;43.614;1.456;2023-04-01T03:41:38;19.00;;;4.20;;
15655;SDS011;7928;43.614;1.456;2023-04-01T03:44:05;22.00;;;5.33;;
15655;SDS011;7928;43.614;1.456;2023-04-01T03:46:33;19.97;;;4.83;;
15655;SDS011;7928;43.614;1.456;2023-04-01T03:49:00;23.67;;;4.77;;
15655;SDS011;7928;43.614;1.456;2023-04-01T03:51:27;19.23;;;4.63;;
15655;SDS011;7928;43.614;1.456;2023-04-01T03:53:55;24.50;;;4.37;;
15655;SDS011;7928;43.614;1.456;2023-04-01T03:56:22;21.50;;;5.13;;
15655;SDS011;7928;43.614;1.456;2023-04-01T03:58:48;25.37;;;4.43;;
15655;SDS011;7928;43.614;1.456;2023-04-01T04:01:16;21.27;;;4.87;;
15655;SDS011;7928;43.614;1.456;2023-04-01T04:03:47;24.37;;;4.50;;
15655;SDS011;7928;43.614;1.456;2023-04-01T04:06:15;19.20;;;4.50;;
15655;SDS011;7928;43.614;1.456;2023-04-01T04:08:43;24.47;;;4.60;;
15655;SDS011;7928;43.614;1.456;2023-04-01T04:11:10;21.97;;;4.33;;
15655;SDS011;7928;43.614;1.456;2023-04-01T04:13:37;20.87;;;4.53;;
15655;SDS011;7928;43.614;1.456;2023-04-01T04:16:05;21.40;;;4.80;;
15655;SDS011;7928;43.614;1.456;2023-04-01T04:18:32;22.77;;;4.40;;
15655;SDS011;7928;43.614;1.456;2023-04-01T04:21:00;22.27;;;4.53;;
15655;SDS011;7928;43.614;1.456;2023-04-01T04:23:28;21.90;;;4.77;;
15655;SDS011;7928;43.614;1.456;2023-04-01T04:25:57;22.63;;;5.03;;
15655;SDS011;7928;43.614;1.456;2023-04-01T04:28:26;22.80;;;4.67;;
15655;SDS011;7928;43.614;1.456;2023-04-01T04:30:53;21.27;;;4.20;;
15655;SDS011;7928;43.614;1.456;2023-04-01T04:33:20;25.53;;;5.23;;
15655;SDS011;7928;43.614;1.456;2023-04-01T04:35:48;24.20;;;3.93;;
15655;SDS011;7928;43.614;1.456;2023-04-01T04:38:16;23.00;;;3.47;;
15655;SDS011;7928;43.614;1.456;2023-04-01T04:40:44;19.57;;;4.83;;
15655;SDS011;7928;43.614;1.456;2023-04-01T04:43:11;22.87;;;4.27;;
15655;SDS011;7928;43.614;1.456;2023-04-01T04:45:39;19.43;;;3.80;;
15655;SDS011;7928;43.614;1.456;2023-04-01T04:48:06;15.23;;;4.40;;
15655;SDS011;7928;43.614;1.456;2023-04-01T04:50:34;26.53;;;3.87;;
15655;SDS011;7928;43.614;1.456;2023-04-01T04:53:01;23.13;;;4.33;;
15655;SDS011;7928;43.614;1.456;2023-04-01T04:55:29;18.33;;;4.40;;
15655;SDS011;7928;43.614;1.456;2023-04-01T04:57:56;17.87;;;4.80;;
15655;SDS011;7928;43.614;1.456;2023-04-01T05:00:23;20.97;;;4.03;;
15655;SDS011;7928;43.614;1.456;2023-04-01T05:02:50;22.73;;;4.70;;
15655;SDS011;7928;43.614;1.456;2023-04-01T05:05:17;21.50;;;3.83;;
15655;SDS011;7928;43.614;1.456;2023-04-01T05:07:44;20.53;;;3.80;;
15655;SDS011;7928;43.614;1.456;2023-04-01T05:10:11;24.60;;;4.20;;
15655;SDS011;7928;43.614;1.456;2023-04-01T05:12:39;16.30;;;3.90;;
15655;SDS011;7928;43.614;1.456;2023-04-01T05:15:07;21.33;;;4.33;;
15655;SDS011;7928;43.614;1.456;2023-04-01T05:17:34;23.17;;;4.53;;
15655;SDS011;7928;43.614;1.456;2023-04-01T05:20:01;23.60;;;4.27;;
15655;SDS011;7928;43.614;1.456;2023-04-01T05:22:28;21.47;;;4.47;;
15655;SDS011;7928;43.614;1.456;2023-04-01T05:24:55;21.13;;;3.73;;
15655;SDS011;7928;43.614;1.456;2023-04-01T05:27:22;24.23;;;4.53;;
15655;SDS011;7928;43.614;1.456;2023-04-01T05:29:51;24.97;;;4.13;;
15655;SDS011;7928;43.614;1.456;2023-04-01T05:32:18;19.10;;;4.47;;
15655;SDS011;7928;43.614;1.456;2023-04-01T05:34:45;16.70;;;4.53;;
15655;SDS011;7928;43.614;1.456;2023-04-01T05:37:12;20.60;;;4.47;;
15655;SDS011;7928;43.614;1.456;2023-04-01T05:39:39;27.13;;;4.67;;
15655;SDS011;7928;43.614;1.456;2023-04-01T05:42:06;20.60;;;4.97;;
15655;SDS011;7928;43.614;1.456;2023-04-01T05:44:33;20.40;;;3.83;;
15655;SDS011;7928;43.614;1.456;2023-04-01T05:47:02;21.30;;;5.00;;
15655;SDS011;7928;43.614;1.456;2023-04-01T05:49:30;20.73;;;3.90;;
15655;SDS011;7928;43.614;1.456;2023-04-01T05:51:57;22.13;;;5.03;;
15655;SDS011;7928;43.614;1.456;2023-04-01T05:54:24;20.73;;;4.33;;
15655;SDS011;7928;43.614;1.456;2023-04-01T05:56:51;21.03;;;4.20;;
15655;SDS011;7928;43.614;1.456;2023-04-01T05:59:18;23.03;;;4.33;;
15655;SDS011;7928;43.614;1.456;2023-04-01T06:01:45;20.10;;;4.67;;
15655;SDS011;7928;43.614;1.456;2023-04-01T06:04:15;15.83;;;4.47;;
15655;SDS011;7928;43.614;1.456;2023-04-01T06:06:43;21.50;;;4.80;;
15655;SDS011;7928;43.614;1.456;2023-04-01T06:09:12;16.97;;;4.30;;
15655;SDS011;7928;43.614;1.456;2023-04-01T06:11:44;23.37;;;4.63;;
15655;SDS011;7928;43.614;1.456;2023-04-01T06:14:24;24.60;;;4.37;;
15655;SDS011;7928;43.614;1.456;2023-04-01T06:17:01;30.40;;;5.20;;
15655;SDS011;7928;43.614;1.456;2023-04-01T06:19:44;22.83;;;4.17;;
15655;SDS011;7928;43.614;1.456;2023-04-01T06:22:30;28.73;;;5.73;;
15655;SDS011;7928;43.614;1.456;2023-04-01T06:25:27;20.50;;;4.30;;
15655;SDS011;7928;43.614;1.456;2023-04-01T06:31:05;22.77;;;4.63;;
15655;SDS011;7928;43.614;1.456;2023-04-01T06:33:42;22.07;;;4.30;;
15655;SDS011;7928;43.614;1.456;2023-04-01T06:36:23;23.10;;;5.13;;
15655;SDS011;7928;43.614;1.456;2023-04-01T06:39:12;22.80;;;4.00;;
15655;SDS011;7928;43.614;1.456;2023-04-01T06:42:02;21.63;;;4.90;;
15655;SDS011;7928;43.614;1.456;2023-04-01T06:44:43;24.13;;;4.30;;
15655;SDS011;7928;43.614;1.456;2023-04-01T06:47:22;16.80;;;4.23;;
15655;SDS011;7928;43.614;1.456;2023-04-01T06:50:00;20.37;;;4.10;;
15655;SDS011;7928;43.614;1.456;2023-04-01T06:52:41;23.03;;;3.97;;
15655;SDS011;7928;43.614;1.456;2023-04-01T06:55:23;22.53;;;4.63;;
15655;SDS011;7928;43.614;1.456;2023-04-01T06:57:55;18.60;;;4.10;;
15655;SDS011;7928;43.614;1.456;2023-04-01T07:00:26;19.70;;;4.07;;
15655;SDS011;7928;43.614;1.456;2023-04-01T07:02:59;27.00;;;4.00;;
15655;SDS011;7928;43.614;1.456;2023-04-01T07:05:32;23.60;;;4.97;;
15655;SDS011;7928;43.614;1.456;2023-04-01T07:08:02;22.30;;;3.77;;
15655;SDS011;7928;43.614;1.456;2023-04-01T07:10:35;16.37;;;3.97;;
15655;SDS011;7928;43.614;1.456;2023-04-01T07:13:10;25.93;;;4.43;;
15655;SDS011;7928;43.614;1.456;2023-04-01T07:15:43;21.10;;;4.57;;
15655;SDS011;7928;43.614;1.456;2023-04-01T07:18:17;28.67;;;4.87;;
15655;SDS011;7928;43.614;1.456;2023-04-01T07:20:48;20.30;;;4.20;;
15655;SDS011;7928;43.614;1.456;2023-04-01T07:23:22;25.43;;;4.30;;
15655;SDS011;7928;43.614;1.456;2023-04-01T07:25:51;15.63;;;3.73;;
15655;SDS011;7928;43.614;1.456;2023-04-01T07:28:21;21.30;;;4.47;;
15655;SDS011;7928;43.614;1.456;2023-04-01T07:30:51;25.30;;;5.07;;
15655;SDS011;7928;43.614;1.456;2023-04-01T07:33:28;18.57;;;4.40;;
15655;SDS011;7928;43.614;1.456;2023-04-01T07:36:03;22.30;;;3.93;;
15655;SDS011;7928;43.614;1.456;2023-04-01T07:38:40;19.93;;;3.37;;
15655;SDS011;7928;43.614;1.456;2023-04-01T07:41:19;18.03;;;3.67;;
15655;SDS011;7928;43.614;1.456;2023-04-01T07:43:55;23.17;;;4.50;;
15655;SDS011;7928;43.614;1.456;2023-04-01T07:46:49;20.80;;;4.47;;
15655;SDS011;7928;43.614;1.456;2023-04-01T07:49:26;21.40;;;3.80;;
15655;SDS011;7928;43.614;1.456;2023-04-01T07:52:04;20.90;;;4.17;;
15655;SDS011;7928;43.614;1.456;2023-04-01T07:54:38;22.73;;;3.87;;
15655;SDS011;7928;43.614;1.456;2023-04-01T07:57:14;21.37;;;3.77;;
15655;SDS011;7928;43.614;1.456;2023-04-01T07:59:47;21.97;;;4.30;;
15655;SDS011;7928;43.614;1.456;2023-04-01T08:02:33;16.90;;;3.97;;
15655;SDS011;7928;43.614;1.456;2023-04-01T08:05:14;21.17;;;4.00;;
15655;SDS011;7928;43.614;1.456;2023-04-01T08:07:48;16.13;;;4.33;;
15655;SDS011;7928;43.614;1.456;2023-04-01T08:10:21;16.47;;;3.67;;
15655;SDS011;7928;43.614;1.456;2023-04-01T08:12:54;18.30;;;3.57;;
15655;SDS011;7928;43.614;1.456;2023-04-01T08:15:31;19.50;;;4.67;;
15655;SDS011;7928;43.614;1.456;2023-04-01T08:18:08;29.00;;;5.17;;
15655;SDS011;7928;43.614;1.456;2023-04-01T08:20:47;19.10;;;4.67;;
15655;SDS011;7928;43.614;1.456;2023-04-01T08:23:19;17.23;;;4.27;;
15655;SDS011;7928;43.614;1.456;2023-04-01T08:25:52;21.20;;;4.27;;
15655;SDS011;7928;43.614;1.456;2023-04-01T08:28:24;17.50;;;4.13;;
15655;SDS011;7928;43.614;1.456;2023-04-01T08:30:56;19.83;;;5.40;;
15655;SDS011;7928;43.614;1.456;2023-04-01T08:33:27;22.80;;;4.70;;
15655;SDS011;7928;43.614;1.456;2023-04-01T08:35:56;15.90;;;3.67;;
15655;SDS011;7928;43.614;1.456;2023-04-01T08:38:29;19.53;;;3.43;;
15655;SDS011;7928;43.614;1.456;2023-04-01T08:41:08;16.60;;;4.07;;
15655;SDS011;7928;43.614;1.456;2023-04-01T08:43:54;18.03;;;3.97;;
15655;SDS011;7928;43.614;1.456;2023-04-01T08:47:03;17.27;;;4.17;;
15655;SDS011;7928;43.614;1.456;2023-04-01T08:49:56;15.90;;;3.60;;
15655;SDS011;7928;43.614;1.456;2023-04-01T08:52:43;19.73;;;3.50;;
15655;SDS011;7928;43.614;1.456;2023-04-01T08:55:25;17.97;;;3.37;;
15655;SDS011;7928;43.614;1.456;2023-04-01T09:00:53;14.10;;;3.73;;
15655;SDS011;7928;43.614;1.456;2023-04-01T09:03:35;14.23;;;2.57;;
15655;SDS011;7928;43.614;1.456;2023-04-01T09:06:29;16.30;;;2.70;;
15655;SDS011;7928;43.614;1.456;2023-04-01T09:09:05;11.70;;;2.80;;
15655;SDS011;7928;43.614;1.456;2023-04-01T09:11:54;12.03;;;2.67;;
15655;SDS011;7928;43.614;1.456;2023-04-01T09:14:41;11.87;;;2.90;;
15655;SDS011;7928;43.614;1.456;2023-04-01T09:17:37;9.60;;;2.20;;
15655;SDS011;7928;43.614;1.456;2023-04-01T09:20:27;12.07;;;2.03;;
15655;SDS011;7928;43.614;1.456;2023-04-01T09:26:13;11.23;;;2.03;;
15655;SDS011;7928;43.614;1.456;2023-04-01T09:28:55;12.73;;;1.80;;
15655;SDS011;7928;43.614;1.456;2023-04-01T09:31:46;8.07;;;1.53;;
15655;SDS011;7928;43.614;1.456;2023-04-01T09:34:41;7.13;;;1.60;;
15655;SDS011;7928;43.614;1.456;2023-04-01T09:37:21;5.97;;;1.60;;
15655;SDS011;7928;43.614;1.456;2023-04-01T09:40:14;9.17;;;1.13;;
15655;SDS011;7928;43.614;1.456;2023-04-01T09:42:44;8.90;;;1.70;;
15655;SDS011;7928;43.614;1.456;2023-04-01T09:48:16;8.23;;;1.30;;
15655;SDS011;7928;43.614;1.456;2023-04-01T09:51:00;7.20;;;1.77;;
15655;SDS011;7928;43.614;1.456;2023-04-01T09:53:36;9.90;;;1.13;;
15655;SDS011;7928;43.614;1.456;2023-04-01T10:02:33;8.47;;;2.00;;
15655;SDS011;7928;43.614;1.456;2023-04-01T10:08:49;11.23;;;1.90;;
15655;SDS011;7928;43.614;1.456;2023-04-01T10:18:02;7.07;;;1.67;;
15655;SDS011;7928;43.614;1.456;2023-04-01T10:20:50;6.67;;;1.67;;
15655;SDS011;7928;43.614;1.456;2023-04-01T10:26:45;6.03;;;1.70;;
15655;SDS011;7928;43.614;1.456;2023-04-01T10:35:57;9.93;;;1.90;;
15655;SDS011;7928;43.614;1.456;2023-04-01T10:42:19;9.50;;;1.87;;
15655;SDS011;7928;43.614;1.456;2023-04-01T10:51:29;6.83;;;1.57;;
15655;SDS011;7928;43.614;1.456;2023-04-01T10:54:36;7.13;;;1.70;;
15655;SDS011;7928;43.614;1.456;2023-04-01T10:57:16;7.03;;;1.73;;
15655;SDS011;7928;43.614;1.456;2023-04-01T11:06:12;6.23;;;1.97;;
15655;SDS011;7928;43.614;1.456;2023-04-01T11:12:01;11.90;;;2.90;;
15655;SDS011;7928;43.614;1.456;2023-04-01T11:15:03;8.97;;;1.83;;
15655;SDS011;7928;43.614;1.456;2023-04-01T11:17:56;13.00;;;2.70;;
15655;SDS011;7928;43.614;1.456;2023-04-01T11:23:50;10.90;;;2.27;;
15655;SDS011;7928;43.614;1.456;2023-04-01T11:26:32;9.93;;;2.03;;
15655;SDS011;7928;43.614;1.456;2023-04-01T11:32:08;8.83;;;1.93;;
15655;SDS011;7928;43.614;1.456;2023-04-01T11:34:54;7.37;;;1.43;;
15655;SDS011;7928;43.614;1.456;2023-04-01T11:37:39;7.73;;;2.17;;
15655;SDS011;7928;43.614;1.456;2023-04-01T11:40:18;5.30;;;1.60;;
15655;SDS011;7928;43.614;1.456;2023-04-01T11:42:55;11.60;;;2.13;;
15655;SDS011;7928;43.614;1.456;2023-04-01T11:45:32;5.90;;;1.57;;
15655;SDS011;7928;43.614;1.456;2023-04-01T11:48:14;7.40;;;1.70;;
15655;SDS011;7928;43.614;1.456;2023-04-01T11:50:53;6.53;;;1.17;;
15655;SDS011;7928;43.614;1.456;2023-04-01T11:53:41;5.27;;;1.00;;
15655;SDS011;7928;43.614;1.456;2023-04-01T11:56:16;5.37;;;1.33;;
15655;SDS011;7928;43.614;1.456;2023-04-01T11:59:05;8.53;;;1.60;;
15655;SDS011;7928;43.614;1.456;2023-04-01T12:01:57;6.27;;;1.07;;
15655;SDS011;7928;43.614;1.456;2023-04-01T12:04:38;4.00;;;1.10;;
15655;SDS011;7928;43.614;1.456;2023-04-01T12:07:23;3.10;;;0.90;;
15655;SDS011;7928;43.614;1.456;2023-04-01T12:10:12;4.07;;;0.80;;
15655;SDS011;7928;43.614;1.456;2023-04-01T12:12:46;4.30;;;1.57;;
15655;SDS011;7928;43.614;1.456;2023-04-01T12:15:23;4.60;;;1.07;;
15655;SDS011;7928;43.614;1.456;2023-04-01T12:18:02;4.57;;;0.73;;
15655;SDS011;7928;43.614;1.456;2023-04-01T12:20:38;2.97;;;1.03;;
15655;SDS011;7928;43.614;1.456;2023-04-01T12:23:16;7.40;;;1.20;;
15655;SDS011;7928;43.614;1.456;2023-04-01T12:25:59;6.13;;;1.07;;
15655;SDS011;7928;43.614;1.456;2023-04-01T12:28:37;4.97;;;1.30;;
15655;SDS011;7928;43.614;1.456;2023-04-01T12:31:17;5.13;;;1.20;;
15655;SDS011;7928;43.614;1.456;2023-04-01T12:34:00;8.03;;;1.63;;
15655;SDS011;7928;43.614;1.456;2023-04-01T12:36:52;4.87;;;0.80;;
15655;SDS011;7928;43.614;1.456;2023-04-01T12:39:33;2.47;;;0.83;;
15655;SDS011;7928;43.614;1.456;2023-04-01T12:42:15;4.60;;;0.63;;
15655;SDS011;7928;43.614;1.456;2023-04-01T12:44:52;3.40;;;0.90;;
15655;SDS011;7928;43.614;1.456;2023-04-01T12:47:34;5.93;;;1.07;;
15655;SDS011;7928;43.614;1.456;2023-04-01T12:50:23;4.93;;;1.40;;
15655;SDS011;7928;43.614;1.456;2023-04-01T12:53:01;2.77;;;0.80;;
15655;SDS011;7928;43.614;1.456;2023-04-01T12:55:47;4.73;;;1.20;;
15655;SDS011;7928;43.614;1.456;2023-04-01T13:03:59;3.90;;;1.13;;
15655;SDS011;7928;43.614;1.456;2023-04-01T13:06:52;6.03;;;1.20;;
15655;SDS011;7928;43.614;1.456;2023-04-01T13:09:35;5.63;;;1.17;;
15655;SDS011;7928;43.614;1.456;2023-04-01T13:15:20;4.97;;;1.07;;
15655;SDS011;7928;43.614;1.456;2023-04-01T13:17:53;5.70;;;1.17;;
15655;SDS011;7928;43.614;1.456;2023-04-01T13:20:34;6.73;;;1.00;;
15655;SDS011;7928;43.614;1.456;2023-04-01T13:23:12;4.80;;;1.07;;
15655;SDS011;7928;43.614;1.456;2023-04-01T13:25:51;3.90;;;0.70;;
15655;SDS011;7928;43.614;1.456;2023-04-01T13:28:25;3.70;;;0.70;;
15655;SDS011;7928;43.614;1.456;2023-04-01T13:30:55;5.97;;;0.70;;
15655;SDS011;7928;43.614;1.456;2023-04-01T13:33:30;3.97;;;0.60;;
15655;SDS011;7928;43.614;1.456;2023-04-01T13:36:13;11.13;;;1.17;;
15655;SDS011;7928;43.614;1.456;2023-04-01T13:38:52;4.20;;;0.80;;
15655;SDS011;7928;43.614;1.456;2023-04-01T13:41:36;5.10;;;1.20;;
15655;SDS011;7928;43.614;1.456;2023-04-01T13:44:17;5.43;;;1.10;;
15655;SDS011;7928;43.614;1.456;2023-04-01T13:46:54;5.57;;;1.07;;
15655;SDS011;7928;43.614;1.456;2023-04-01T13:52:55;3.80;;;0.90;;
15655;SDS011;7928;43.614;1.456;2023-04-01T13:55:47;4.53;;;0.77;;
15655;SDS011;7928;43.614;1.456;2023-04-01T14:01:23;4.83;;;0.90;;
15655;SDS011;7928;43.614;1.456;2023-04-01T14:04:10;2.93;;;0.77;;
15655;SDS011;7928;43.614;1.456;2023-04-01T14:07:00;5.23;;;1.00;;
15655;SDS011;7928;43.614;1.456;2023-04-01T14:09:51;9.07;;;1.03;;
15655;SDS011;7928;43.614;1.456;2023-04-01T14:12:29;3.40;;;1.00;;
15655;SDS011;7928;43.614;1.456;2023-04-01T14:18:11;5.53;;;1.47;;
15655;SDS011;7928;43.614;1.456;2023-04-01T14:20:53;4.00;;;0.93;;
15655;SDS011;7928;43.614;1.456;2023-04-01T14:23:37;4.00;;;0.70;;
15655;SDS011;7928;43.614;1.456;2023-04-01T14:26:32;6.50;;;1.30;;
15655;SDS011;7928;43.614;1.456;2023-04-01T14:29:16;6.27;;;1.50;;
15655;SDS011;7928;43.614;1.456;2023-04-01T14:31:58;7.83;;;1.23;;
15655;SDS011;7928;43.614;1.456;2023-04-01T14:34:42;4.97;;;0.90;;
15655;SDS011;7928;43.614;1.456;2023-04-01T14:37:29;6.23;;;1.37;;
15655;SDS011;7928;43.614;1.456;2023-04-01T14:40:21;7.37;;;1.93;;
15655;SDS011;7928;43.614;1.456;2023-04-01T14:46:04;4.33;;;1.00;;
15655;SDS011;7928;43.614;1.456;2023-04-01T14:48:39;8.80;;;1.50;;
15655;SDS011;7928;43.614;1.456;2023-04-01T14:51:18;8.33;;;1.73;;
15655;SDS011;7928;43.614;1.456;2023-04-01T14:53:58;8.47;;;1.30;;
15655;SDS011;7928;43.614;1.456;2023-04-01T14:56:39;10.23;;;1.80;;
15655;SDS011;7928;43.614;1.456;2023-04-01T14:59:09;5.67;;;1.33;;
15655;SDS011;7928;43.614;1.456;2023-04-01T15:01:54;9.13;;;1.70;;
15655;SDS011;7928;43.614;1.456;2023-04-01T15:04:35;6.80;;;1.30;;
15655;SDS011;7928;43.614;1.456;2023-04-01T15:07:15;6.97;;;1.67;;
15655;SDS011;7928;43.614;1.456;2023-04-01T15:10:02;8.50;;;1.77;;
15655;SDS011;7928;43.614;1.456;2023-04-01T15:12:36;2.80;;;0.93;;
15655;SDS011;7928;43.614;1.456;2023-04-01T15:15:16;4.83;;;1.10;;
15655;SDS011;7928;43.614;1.456;2023-04-01T15:17:58;7.17;;;1.13;;
15655;SDS011;7928;43.614;1.456;2023-04-01T15:20:43;4.00;;;0.93;;
15655;SDS011;7928;43.614;1.456;2023-04-01T15:23:34;4.93;;;1.17;;
15655;SDS011;7928;43.614;1.456;2023-04-01T15:26:20;5.97;;;0.80;;
15655;SDS011;7928;43.614;1.456;2023-04-01T15:29:05;4.20;;;1.00;;
15655;SDS011;7928;43.614;1.456;2023-04-01T15:31:52;3.57;;;0.83;;
15655;SDS011;7928;43.614;1.456;2023-04-01T15:34:26;4.53;;;0.83;;
15655;SDS011;7928;43.614;1.456;2023-04-01T15:37:01;4.10;;;1.27;;
15655;SDS011;7928;43.614;1.456;2023-04-01T15:39:39;5.83;;;1.00;;
15655;SDS011;7928;43.614;1.456;2023-04-01T15:42:26;7.03;;;1.07;;
15655;SDS011;7928;43.614;1.456;2023-04-01T15:45:04;3.67;;;0.60;;
15655;SDS011;7928;43.614;1.456;2023-04-01T15:47:39;2.60;;;0.60;;
15655;SDS011;7928;43.614;1.456;2023-04-01T15:53:18;3.70;;;1.23;;
15655;SDS011;7928;43.614;1.456;2023-04-01T15:56:06;6.03;;;1.27;;
15655;SDS011;7928;43.614;1.456;2023-04-01T15:58:43;4.53;;;0.63;;
15655;SDS011;7928;43.614;1.456;2023-04-01T16:01:24;3.87;;;0.77;;
15655;SDS011;7928;43.614;1.456;2023-04-01T16:04:03;4.83;;;0.87;;
15655;SDS011;7928;43.614;1.456;2023-04-01T16:06:51;3.43;;;0.70;;
15655;SDS011;7928;43.614;1.456;2023-04-01T16:09:36;4.10;;;1.00;;
15655;SDS011;7928;43.614;1.456;2023-04-01T16:12:15;5.27;;;1.30;;
15655;SDS011;7928;43.614;1.456;2023-04-01T16:14:49;3.37;;;0.70;;
15655;SDS011;7928;43.614;1.456;2023-04-01T16:17:28;6.80;;;0.80;;
15655;SDS011;7928;43.614;1.456;2023-04-01T16:20:12;2.90;;;0.70;;
15655;SDS011;7928;43.614;1.456;2023-04-01T16:22:45;6.17;;;1.10;;
15655;SDS011;7928;43.614;1.456;2023-04-01T16:25:25;2.83;;;1.03;;
15655;SDS011;7928;43.614;1.456;2023-04-01T16:28:02;2.60;;;0.60;;
15655;SDS011;7928;43.614;1.456;2023-04-01T16:30:40;4.43;;;0.93;;
15655;SDS011;7928;43.614;1.456;2023-04-01T16:33:14;3.60;;;0.73;;
15655;SDS011;7928;43.614;1.456;2023-04-01T16:35:47;6.37;;;1.17;;
15655;SDS011;7928;43.614;1.456;2023-04-01T16:38:22;5.47;;;0.83;;
15655;SDS011;7928;43.614;1.456;2023-04-01T16:41:07;3.27;;;0.90;;
15655;SDS011;7928;43.614;1.456;2023-04-01T16:43:41;2.03;;;0.83;;
15655;SDS011;7928;43.614;1.456;2023-04-01T16:46:19;4.40;;;1.17;;
15655;SDS011;7928;43.614;1.456;2023-04-01T16:49:02;5.10;;;1.10;;
15655;SDS011;7928;43.614;1.456;2023-04-01T16:51:44;4.50;;;0.80;;
15655;SDS011;7928;43.614;1.456;2023-04-01T16:54:16;4.80;;;0.90;;
15655;SDS011;7928;43.614;1.456;2023-04-01T16:56:55;2.83;;;0.60;;
15655;SDS011;7928;43.614;1.456;2023-04-01T16:59:29;3.43;;;1.20;;
15655;SDS011;7928;43.614;1.456;2023-04-01T17:02:02;5.20;;;1.10;;
15655;SDS011;7928;43.614;1.456;2023-04-01T17:04:37;4.70;;;1.70;;
15655;SDS011;7928;43.614;1.456;2023-04-01T17:07:20;4.23;;;0.60;;
15655;SDS011;7928;43.614;1.456;2023-04-01T17:09:59;3.43;;;0.93;;
15655;SDS011;7928;43.614;1.456;2023-04-01T17:12:36;4.83;;;1.30;;
15655;SDS011;7928;43.614;1.456;2023-04-01T17:15:14;9.20;;;1.17;;
15655;SDS011;7928;43.614;1.456;2023-04-01T17:17:49;4.33;;;0.80;;